Share

Monastir Skanes, Tunisie

Habib Bourguiba (DTMB) Alt. 7 ft | 35.76 °N, 10.75 °E | Change Station

Current weather conditions updated 8 minutes ago

Partly Cloudy
Partiellement nuageux
48 ° F
Paraît 48 ° F
N
4
Vent Variable Vent de SSO
Lever du soleil 5:40 AM
Coucher du soleil 6:52 PM
Lune Lune gibbeuse décroissante

Aujourd’hui il est prévu de faire plus chaud qu’hier.

Pression 29.95 pouce
Visibilité 6.2 Miles terrestres
Nuages Peu 2300 ft
Point de rosée 37 ° F
Humidité 66%
Précipitations 0.00 pouce
Profondeur de la couche neigeuse Non disponible.
UV 0 sur 16
Pollen Non disponible.
Qualité de l'air Non disponible.
Flu Activity Non disponible.
METAR DTMB 180330Z 21003KT 9999 FEW023 09/03 Q1014 NOSIG

More Conditions Fewer Conditions

Pression 29.95 pouce
Visibilité 6.2 Miles terrestres
Nuages Peu 2300 ft
Point de rosée 37 ° F
Humidité 66%
Précipitations 0.00 pouce
Profondeur de la couche neigeuse Non disponible.
UV 0 sur 16
Pollen Non disponible.
Qualité de l'air Non disponible.
Flu Activity Non disponible.
METAR DTMB 180330Z 21003KT 9999 FEW023 09/03 Q1014 NOSIG

More Conditions Fewer Conditions

10-Day Forecast

Almanac

Astronomie

Apr. 18, 2014 Lever Coucher
Temps réel 05:40 CET 18:52 CET
Crépuscule civil 05:14 CET 19:19 CET
Crépuscule nautique 04:42 CET 19:50 CET
Crépuscule astronomique 04:10 CET 20:23 CET
Lune 22:17 CET 07:52 CET
Durée de lumière visible 14h 04m
Longueur du jour
13h 11m
Tomorrow will be 2m 6s longer.
Lune gibbeuse décroissante, 91% of the Moon is Illuminated
avr 17
Lune gibbeuse décroissante
avr 22
Dernier quartier
avr 29
Nouveau
mai 6
Premier quartier
mai 14
Pleine lune

Les extrêmes de température d’hier

Country Highs Country Lows

Community

  • SUNRISE THROUGH THE TREES.
    SUNRISE THROUGH THE TREES.
  • Dog Wood Blossoms
    Dog Wood Blossoms
  • Morning Light
    Morning Light
  • New Day
    New Day
  • Lake Michigan Sunrise
    Lake Michigan Sunrise

WunderPhotos

Upload Photos

1,702,240 Photos téléchargées !

WunderBlogs® & News

Nearby

Qualité de l'air

Not available.

Épaisseur de neige

Not available.

Températures des eaux côtières

Lieu Température
Aucun rapport de station

Activité sismique

Ville Distance Mag. Time & Date
No recent earthquake activity has been reported nearby.
Minimum magnitude displayed is 2.5.

Stations météo à proximité

Emplacement de la station Température Point de rosée Humidité Vent Precip. Alt. Mise à jour Type
Akouda bei Sousse / Port El Kantaoui, Akouda 53.8 ° F 34 ° F 46% OSO  à  0.0 mph 0.00 pouce / hr 164 ft 4:00 AM CET Normal

Show More Stations Show Fewer Stations

What do you think?

We're not finished. Please let us know what you like, what you don't like, and what you are still missing.